Time;durP1;ratioP1;P1;durP2;ratioP2;P2;SDS_P1;SDS_P2;PMS_P1;PMS_P2;Temp;Humidity;BMP_temperature;BMP_pressure;BME280_temperature;BME280_humidity;BME280_pressure;Samples;Min_cycle;Max_cycle;Signal;HPM_P1;HPM_P2
2023/03/22 00:03:05;;;;;;;64.27;40.60;;;;;;;;;;10457417;28;20404;-90
2023/03/22 00:08:07;;;;;;;67.85;42.47;;;;;;;;;;10486824;28;20411;-90
2023/03/22 00:13:11;;;;;;;68.38;43.85;;;;;;;;;;10470272;28;20402;-90
2023/03/22 00:18:13;;;;;;;72.00;45.95;;;;;;;;;;10490161;28;20410;-89
2023/03/22 00:23:15;;;;;;;70.77;44.17;;;;;;;;;;10486447;28;20591;-90
2023/03/22 00:28:19;;;;;;;69.38;44.38;;;;;;;;;;10485912;28;20410;-90
2023/03/22 00:33:21;;;;;;;66.63;43.30;;;;;;;;;;10494055;28;20928;-90
2023/03/22 00:38:23;;;;;;;67.28;44.13;;;;;;;;;;10495121;28;20445;-90
2023/03/22 00:43:26;;;;;;;66.35;42.60;;;;;;;;;;10467997;28;20403;-90
2023/03/22 00:48:28;;;;;;;69.22;43.53;;;;;;;;;;10454368;28;20749;-90
2023/03/22 00:53:31;;;;;;;68.22;42.88;;;;;;;;;;10458434;28;20422;-90
2023/03/22 00:58:36;;;;;;;71.18;42.53;;;;;;;;;;10466913;28;20404;-90
2023/03/22 01:03:38;;;;;;;66.53;43.25;;;;;;;;;;10472844;28;20406;-90
2023/03/22 01:08:39;;;;;;;69.40;43.75;;;;;;;;;;10482990;28;20413;-89
2023/03/22 01:13:43;;;;;;;66.07;41.97;;;;;;;;;;10493414;28;20418;-89
2023/03/22 01:18:45;;;;;;;65.78;42.47;;;;;;;;;;10474207;28;20402;-90
2023/03/22 01:23:47;;;;;;;62.00;41.40;;;;;;;;;;10483361;28;20402;-90
2023/03/22 01:28:50;;;;;;;61.70;40.92;;;;;;;;;;10483924;28;20402;-90
2023/03/22 01:33:52;;;;;;;64.15;40.53;;;;;;;;;;10492259;28;20475;-90
2023/03/22 01:38:54;;;;;;;57.22;39.92;;;;;;;;;;10476897;28;20396;-90
2023/03/22 01:44:15;;;;;;;57.47;39.77;;;;;;;;;;10473161;28;20403;-89
2023/03/22 01:49:22;;;;;;;59.88;39.33;;;;;;;;;;10457266;28;20401;-89
2023/03/22 01:54:28;;;;;;;57.37;38.90;;;;;;;;;;10491863;28;20501;-90
2023/03/22 01:59:31;;;;;;;61.33;40.50;;;;;;;;;;10462395;28;20396;-89
2023/03/22 02:04:37;;;;;;;59.13;41.03;;;;;;;;;;10491843;28;20809;-90
2023/03/22 02:09:41;;;;;;;58.53;40.27;;;;;;;;;;10478902;28;20969;-90
2023/03/22 02:15:04;;;;;;;58.35;39.50;;;;;;;;;;10446818;28;20423;-90
2023/03/22 02:20:37;;;;;;;56.88;40.30;;;;;;;;;;10459514;28;20410;-90
2023/03/22 02:26:16;;;;;;;58.20;39.47;;;;;;;;;;10442809;28;20442;-90
2023/03/22 02:31:35;;;;;;;59.83;39.47;;;;;;;;;;10476038;28;20407;-90
2023/03/22 02:37:14;;;;;;;58.37;39.90;;;;;;;;;;10489604;28;20428;-89
2023/03/22 02:42:27;;;;;;;59.30;40.88;;;;;;;;;;10486905;28;20420;-90
2023/03/22 02:47:38;;;;;;;59.92;39.38;;;;;;;;;;10469105;28;20415;-89
2023/03/22 02:52:44;;;;;;;58.22;39.67;;;;;;;;;;10458497;28;20410;-89
2023/03/22 02:57:50;;;;;;;58.38;39.33;;;;;;;;;;10452720;28;20458;-90
2023/03/22 03:02:55;;;;;;;58.05;39.00;;;;;;;;;;10476749;28;20465;-90
2023/03/22 03:08:02;;;;;;;62.40;39.80;;;;;;;;;;10488235;28;20892;-87
2023/03/22 03:13:05;;;;;;;61.13;38.50;;;;;;;;;;10470175;28;20403;-90
2023/03/22 03:18:26;;;;;;;57.47;38.50;;;;;;;;;;10455105;28;20427;-90
2023/03/22 03:23:36;;;;;;;55.70;37.63;;;;;;;;;;10473687;28;20416;-90
2023/03/22 03:28:49;;;;;;;53.22;36.50;;;;;;;;;;10466843;28;20425;-89
2023/03/22 03:33:57;;;;;;;54.17;36.73;;;;;;;;;;10473968;28;20398;-90
2023/03/22 03:39:01;;;;;;;54.40;36.40;;;;;;;;;;10454439;28;20403;-90
2023/03/22 03:44:05;;;;;;;50.15;35.20;;;;;;;;;;10468910;28;20402;-89
2023/03/22 03:49:10;;;;;;;52.97;36.85;;;;;;;;;;10494311;28;20414;-90
2023/03/22 03:54:12;;;;;;;53.78;36.08;;;;;;;;;;10500534;28;20535;-90
2023/03/22 03:59:15;;;;;;;52.77;35.90;;;;;;;;;;10485447;28;20400;-90
2023/03/22 04:04:24;;;;;;;50.40;35.75;;;;;;;;;;10464911;28;20412;-89
2023/03/22 04:09:28;;;;;;;55.20;36.83;;;;;;;;;;10458997;28;20809;-90
2023/03/22 04:14:32;;;;;;;56.92;36.20;;;;;;;;;;10477343;28;20483;-90
2023/03/22 04:19:34;;;;;;;53.13;36.20;;;;;;;;;;10477081;28;20462;-89
2023/03/22 04:24:36;;;;;;;52.28;35.53;;;;;;;;;;10496626;28;20414;-90
2023/03/22 04:29:39;;;;;;;52.03;35.88;;;;;;;;;;10493732;28;20405;-89
2023/03/22 04:34:41;;;;;;;52.70;35.25;;;;;;;;;;10472572;28;20428;-89
2023/03/22 04:39:43;;;;;;;52.97;35.97;;;;;;;;;;10492765;28;20485;-89
2023/03/22 04:44:46;;;;;;;53.38;35.22;;;;;;;;;;10479067;28;20929;-89
2023/03/22 04:49:48;;;;;;;52.28;35.40;;;;;;;;;;10491485;28;20444;-90
2023/03/22 04:54:50;;;;;;;53.33;35.70;;;;;;;;;;10483116;28;20423;-90
2023/03/22 04:59:53;;;;;;;52.53;35.93;;;;;;;;;;10471594;28;20869;-89
2023/03/22 05:04:55;;;;;;;51.17;36.25;;;;;;;;;;10471145;28;20947;-90
2023/03/22 05:09:59;;;;;;;53.47;36.83;;;;;;;;;;10459773;28;20472;-89
2023/03/22 05:15:04;;;;;;;50.20;35.22;;;;;;;;;;10467298;28;20424;-89
2023/03/22 05:20:08;;;;;;;54.20;35.83;;;;;;;;;;10489903;28;20455;-89
2023/03/22 05:25:11;;;;;;;51.00;35.63;;;;;;;;;;10490309;28;20490;-89
2023/03/22 05:30:15;;;;;;;53.60;36.25;;;;;;;;;;10486108;28;20414;-89
2023/03/22 05:35:16;;;;;;;56.20;36.17;;;;;;;;;;10451932;28;20423;-89
2023/03/22 05:40:18;;;;;;;56.83;36.53;;;;;;;;;;10496988;28;20803;-89
2023/03/22 05:45:23;;;;;;;55.65;36.47;;;;;;;;;;10488675;28;20410;-89
2023/03/22 05:50:25;;;;;;;65.03;36.88;;;;;;;;;;10464440;28;20876;-89
2023/03/22 05:55:29;;;;;;;55.85;36.85;;;;;;;;;;10488307;28;20487;-89
2023/03/22 06:00:32;;;;;;;55.42;36.22;;;;;;;;;;10473010;28;20431;-88
2023/03/22 06:05:35;;;;;;;53.60;35.50;;;;;;;;;;10461283;28;20767;-88
2023/03/22 06:10:37;;;;;;;52.85;34.97;;;;;;;;;;10453062;28;20706;-87
2023/03/22 06:15:40;;;;;;;54.95;35.20;;;;;;;;;;10451511;28;20425;-87
2023/03/22 06:20:42;;;;;;;50.87;33.80;;;;;;;;;;10468908;28;20467;-87
2023/03/22 06:25:45;;;;;;;52.30;33.50;;;;;;;;;;10493801;28;20815;-88
2023/03/22 06:30:49;;;;;;;53.08;32.90;;;;;;;;;;10504413;28;20399;-88
2023/03/22 06:35:51;;;;;;;50.23;31.27;;;;;;;;;;10514879;28;20457;-88
2023/03/22 06:40:52;;;;;;;50.75;31.25;;;;;;;;;;10501260;28;20876;-86
2023/03/22 06:45:57;;;;;;;49.27;30.73;;;;;;;;;;10466981;28;20751;-89
2023/03/22 06:50:59;;;;;;;48.90;30.53;;;;;;;;;;10480745;28;20467;-89
2023/03/22 06:56:01;;;;;;;47.30;30.63;;;;;;;;;;10496004;28;20941;-90
2023/03/22 07:01:05;;;;;;;46.50;30.50;;;;;;;;;;10488389;28;20905;-90
2023/03/22 07:06:08;;;;;;;46.00;29.70;;;;;;;;;;10475388;28;20829;-90
2023/03/22 07:11:10;;;;;;;46.92;30.85;;;;;;;;;;10493442;28;20759;-89
2023/03/22 07:16:13;;;;;;;47.38;31.25;;;;;;;;;;10474918;28;20443;-89
2023/03/22 07:21:16;;;;;;;47.60;30.90;;;;;;;;;;10488217;28;20903;-89
2023/03/22 07:26:17;;;;;;;45.53;31.27;;;;;;;;;;10461242;28;20414;-88
2023/03/22 07:31:21;;;;;;;44.78;30.60;;;;;;;;;;10457759;28;20473;-89
2023/03/22 07:36:24;;;;;;;50.47;32.05;;;;;;;;;;10455018;28;20465;-89
2023/03/22 07:41:29;;;;;;;47.58;32.05;;;;;;;;;;10481140;28;20506;-89
2023/03/22 07:46:32;;;;;;;47.88;32.40;;;;;;;;;;10483169;28;20481;-89
2023/03/22 07:51:34;;;;;;;46.90;31.25;;;;;;;;;;10487170;28;20480;-89
2023/03/22 07:56:36;;;;;;;50.63;33.78;;;;;;;;;;10485245;28;20457;-88
2023/03/22 08:01:39;;;;;;;53.63;33.25;;;;;;;;;;10472231;28;20781;-88
2023/03/22 08:06:42;;;;;;;47.67;31.80;;;;;;;;;;10462568;28;20403;-87
2023/03/22 08:11:44;;;;;;;54.10;34.47;;;;;;;;;;10453509;28;20421;-87
2023/03/22 08:16:47;;;;;;;54.22;35.72;;;;;;;;;;10464750;28;20435;-89
2023/03/22 08:21:49;;;;;;;49.47;34.30;;;;;;;;;;10483779;28;20464;-89
2023/03/22 08:26:52;;;;;;;52.93;34.03;;;;;;;;;;10491064;28;20414;-89
2023/03/22 08:32:00;;;;;;;55.47;35.22;;;;;;;;;;10478465;28;20464;-89
2023/03/22 08:37:05;;;;;;;55.08;36.05;;;;;;;;;;10482001;28;20458;-89
2023/03/22 08:42:07;;;;;;;53.60;36.80;;;;;;;;;;10460575;28;20413;-88
2023/03/22 08:47:10;;;;;;;55.45;37.33;;;;;;;;;;10483250;28;20500;-88
2023/03/22 08:52:12;;;;;;;58.25;38.80;;;;;;;;;;10464162;28;20419;-88
2023/03/22 08:57:15;;;;;;;57.22;38.58;;;;;;;;;;10479373;28;20424;-88
2023/03/22 09:02:18;;;;;;;58.37;37.50;;;;;;;;;;10478298;28;20402;-88
2023/03/22 09:07:21;;;;;;;63.40;40.15;;;;;;;;;;10470830;28;20479;-89
2023/03/22 09:12:23;;;;;;;63.63;40.25;;;;;;;;;;10467944;28;20406;-89
2023/03/22 09:17:26;;;;;;;64.45;41.80;;;;;;;;;;10467970;28;20915;-89
2023/03/22 09:22:28;;;;;;;62.57;40.63;;;;;;;;;;10466161;28;20412;-88
2023/03/22 09:27:30;;;;;;;58.42;39.60;;;;;;;;;;10475477;23;20416;-85
2023/03/22 09:32:33;;;;;;;67.03;40.97;;;;;;;;;;10446946;28;20416;-85
2023/03/22 09:37:35;;;;;;;62.28;42.42;;;;;;;;;;10450453;28;20855;-85
2023/03/22 09:42:39;;;;;;;62.40;40.63;;;;;;;;;;10473661;28;20823;-85
2023/03/22 09:47:45;;;;;;;65.13;41.83;;;;;;;;;;10441099;28;20606;-85
2023/03/22 09:52:48;;;;;;;64.93;41.57;;;;;;;;;;10456091;28;21112;-85
2023/03/22 09:58:00;;;;;;;63.67;42.40;;;;;;;;;;10472880;28;20947;-85
2023/03/22 10:03:14;;;;;;;65.68;40.25;;;;;;;;;;10457940;28;20421;-85
2023/03/22 10:08:27;;;;;;;63.10;40.07;;;;;;;;;;10470465;28;20427;-85
2023/03/22 10:13:34;;;;;;;65.70;39.40;;;;;;;;;;10459008;28;20450;-85
2023/03/22 10:18:42;;;;;;;64.50;41.00;;;;;;;;;;10458049;28;20427;-85
2023/03/22 10:23:47;;;;;;;63.22;39.25;;;;;;;;;;10474075;28;20438;-84
2023/03/22 10:28:58;;;;;;;62.35;39.95;;;;;;;;;;10463507;28;20499;-85
2023/03/22 10:34:05;;;;;;;57.20;38.17;;;;;;;;;;10462075;28;20907;-84
2023/03/22 10:39:15;;;;;;;57.03;37.33;;;;;;;;;;10475395;28;20422;-84
2023/03/22 10:44:20;;;;;;;56.13;36.97;;;;;;;;;;10461934;28;20405;-85
2023/03/22 10:49:28;;;;;;;53.13;35.40;;;;;;;;;;10461532;28;20410;-84
2023/03/22 10:54:30;;;;;;;47.83;33.05;;;;;;;;;;10477137;28;20475;-84
2023/03/22 10:59:56;;;;;;;52.00;34.47;;;;;;;;;;10456275;28;20751;-85
2023/03/22 11:05:01;;;;;;;51.97;34.10;;;;;;;;;;10458114;28;20415;-84
2023/03/22 11:10:21;;;;;;;47.93;33.87;;;;;;;;;;10479521;28;20402;-85
2023/03/22 11:15:29;;;;;;;47.15;31.90;;;;;;;;;;10459911;28;20438;-85
2023/03/22 11:20:33;;;;;;;46.00;30.80;;;;;;;;;;10474568;28;20396;-85
2023/03/22 11:25:37;;;;;;;44.07;28.20;;;;;;;;;;10482216;28;20414;-85
2023/03/22 11:30:39;;;;;;;40.37;27.83;;;;;;;;;;10461438;28;20416;-85
2023/03/22 11:35:45;;;;;;;37.63;26.98;;;;;;;;;;10472892;28;20826;-85
2023/03/22 11:40:53;;;;;;;36.22;23.95;;;;;;;;;;10481920;28;20412;-85
2023/03/22 11:45:58;;;;;;;36.58;25.40;;;;;;;;;;10463152;28;20400;-85
2023/03/22 11:51:09;;;;;;;29.70;21.40;;;;;;;;;;10474281;28;20412;-85
2023/03/22 11:56:13;;;;;;;29.52;19.95;;;;;;;;;;10467945;28;20416;-85
2023/03/22 12:01:20;;;;;;;26.10;18.30;;;;;;;;;;10461189;28;20420;-85
2023/03/22 12:06:28;;;;;;;24.77;17.50;;;;;;;;;;10461216;28;20408;-85
2023/03/22 12:11:34;;;;;;;23.08;16.63;;;;;;;;;;10476110;28;20486;-84
2023/03/22 12:16:45;;;;;;;20.63;14.23;;;;;;;;;;10446557;28;20449;-85
2023/03/22 12:21:50;;;;;;;21.98;14.98;;;;;;;;;;10462160;28;20410;-85
2023/03/22 12:26:53;;;;;;;20.02;13.80;;;;;;;;;;10473059;28;20905;-85
2023/03/22 12:32:02;;;;;;;22.67;15.85;;;;;;;;;;10450820;28;20799;-86
2023/03/22 12:37:08;;;;;;;22.50;16.38;;;;;;;;;;10454603;28;20913;-87
2023/03/22 12:42:16;;;;;;;18.60;13.30;;;;;;;;;;10447608;28;20477;-86
2023/03/22 12:47:24;;;;;;;22.92;15.25;;;;;;;;;;10436983;28;20413;-86
2023/03/22 12:52:33;;;;;;;20.70;14.23;;;;;;;;;;10453746;28;20499;-85
2023/03/22 12:57:37;;;;;;;20.27;14.23;;;;;;;;;;10430802;28;20413;-86
2023/03/22 13:02:40;;;;;;;18.50;13.57;;;;;;;;;;10459390;28;20416;-86
2023/03/22 13:07:53;;;;;;;20.13;14.63;;;;;;;;;;10462926;28;20411;-86
2023/03/22 13:13:12;;;;;;;21.83;15.47;;;;;;;;;;10465344;28;20877;-86
2023/03/22 13:18:58;;;;;;;19.55;14.52;;;;;;;;;;10461762;28;20412;-86
2023/03/22 13:24:22;;;;;;;18.00;13.45;;;;;;;;;;10437247;28;20409;-86
2023/03/22 13:29:35;;;;;;;18.50;14.73;;;;;;;;;;10442531;28;20955;-87
2023/03/22 13:34:39;;;;;;;21.60;15.52;;;;;;;;;;10457807;28;20428;-87
2023/03/22 13:39:50;;;;;;;18.38;12.43;;;;;;;;;;10464261;28;20406;-88
2023/03/22 13:44:57;;;;;;;17.63;12.45;;;;;;;;;;10443056;28;20466;-88
2023/03/22 13:50:03;;;;;;;16.80;12.35;;;;;;;;;;10467663;28;20921;-88
2023/03/22 13:55:16;;;;;;;15.80;11.73;;;;;;;;;;10468504;28;20411;-88
2023/03/22 14:00:33;;;;;;;15.80;12.35;;;;;;;;;;10462959;28;21831;-87
2023/03/22 14:05:37;;;;;;;15.88;12.02;;;;;;;;;;10462311;28;20413;-87
2023/03/22 14:10:45;;;;;;;15.95;11.25;;;;;;;;;;10449032;28;20836;-88
2023/03/22 14:15:50;;;;;;;14.77;11.02;;;;;;;;;;10456870;28;20407;-88
2023/03/22 14:20:57;;;;;;;16.30;12.43;;;;;;;;;;10459293;28;20974;-88
2023/03/22 14:26:05;;;;;;;14.90;11.55;;;;;;;;;;10465149;28;20402;-87
2023/03/22 14:31:07;;;;;;;13.50;10.68;;;;;;;;;;10463921;28;20520;-87
2023/03/22 14:36:13;;;;;;;15.77;11.55;;;;;;;;;;10460178;28;20411;-87
2023/03/22 14:41:18;;;;;;;14.37;11.17;;;;;;;;;;10456118;28;20404;-87
2023/03/22 14:46:24;;;;;;;13.70;11.02;;;;;;;;;;10438959;28;20424;-88
2023/03/22 14:51:31;;;;;;;16.83;11.32;;;;;;;;;;10452633;28;20428;-88
2023/03/22 14:56:39;;;;;;;13.27;11.17;;;;;;;;;;10445471;28;20494;-88
2023/03/22 15:01:43;;;;;;;14.10;10.10;;;;;;;;;;10456600;28;20399;-87
2023/03/22 15:06:47;;;;;;;14.13;11.00;;;;;;;;;;10461060;28;20423;-89
2023/03/22 15:11:54;;;;;;;13.97;10.00;;;;;;;;;;10432329;28;20435;-88
2023/03/22 15:17:04;;;;;;;11.70;9.38;;;;;;;;;;10452308;28;20828;-88
2023/03/22 15:22:14;;;;;;;12.30;9.50;;;;;;;;;;10453868;28;20411;-89
2023/03/22 15:27:18;;;;;;;14.07;10.30;;;;;;;;;;10455092;28;20507;-88
2023/03/22 15:32:22;;;;;;;13.73;9.10;;;;;;;;;;10462022;28;20407;-87
2023/03/22 15:37:30;;;;;;;10.48;8.45;;;;;;;;;;10458794;28;20781;-86
2023/03/22 15:42:38;;;;;;;13.73;10.20;;;;;;;;;;10458455;28;20415;-87
2023/03/22 15:47:49;;;;;;;16.13;12.55;;;;;;;;;;10472866;28;20485;-86
2023/03/22 15:52:55;;;;;;;16.65;11.77;;;;;;;;;;10471349;28;20407;-87
2023/03/22 15:58:01;;;;;;;15.88;12.55;;;;;;;;;;10460034;28;20453;-86
2023/03/22 16:03:14;;;;;;;17.10;12.93;;;;;;;;;;10455790;28;20842;-86
2023/03/22 16:08:18;;;;;;;20.08;12.85;;;;;;;;;;10439425;28;20938;-86
2023/03/22 16:13:22;;;;;;;16.08;12.65;;;;;;;;;;10450986;28;20407;-86
2023/03/22 16:18:24;;;;;;;16.73;13.73;;;;;;;;;;10461840;28;20961;-86
2023/03/22 16:23:26;;;;;;;18.57;13.43;;;;;;;;;;10465896;28;20414;-86
2023/03/22 16:28:30;;;;;;;16.90;13.93;;;;;;;;;;10464364;28;20427;-86
2023/03/22 16:33:32;;;;;;;17.97;13.43;;;;;;;;;;10453574;28;20409;-86
2023/03/22 16:38:34;;;;;;;17.05;13.70;;;;;;;;;;10428694;28;20872;-86
2023/03/22 16:43:37;;;;;;;17.55;13.13;;;;;;;;;;10438444;28;20463;-86
2023/03/22 16:48:40;;;;;;;15.53;12.90;;;;;;;;;;10457610;28;20997;-83
2023/03/22 16:53:42;;;;;;;15.80;11.87;;;;;;;;;;10453445;28;20932;-85
2023/03/22 16:58:46;;;;;;;14.73;11.50;;;;;;;;;;10462898;28;20996;-85
2023/03/22 17:03:49;;;;;;;13.77;11.53;;;;;;;;;;10437726;28;20889;-86
2023/03/22 17:08:51;;;;;;;14.02;11.35;;;;;;;;;;10449158;28;20465;-87
2023/03/22 17:13:57;;;;;;;11.93;10.13;;;;;;;;;;10451199;28;20433;-86
2023/03/22 17:18:59;;;;;;;12.85;9.73;;;;;;;;;;10459932;28;20415;-86
2023/03/22 17:24:01;;;;;;;15.70;10.52;;;;;;;;;;10460368;28;20414;-86
2023/03/22 17:29:04;;;;;;;15.80;11.00;;;;;;;;;;10454280;28;20439;-87
2023/03/22 17:34:07;;;;;;;17.65;10.32;;;;;;;;;;10460026;28;20417;-87
2023/03/22 17:39:09;;;;;;;11.73;9.30;;;;;;;;;;10464048;28;20585;-85
2023/03/22 17:44:13;;;;;;;11.57;8.40;;;;;;;;;;10455905;28;20435;-84
2023/03/22 17:49:15;;;;;;;12.00;8.18;;;;;;;;;;10445448;28;20490;-84
2023/03/22 17:54:17;;;;;;;11.85;8.65;;;;;;;;;;10454797;28;20411;-86
2023/03/22 17:59:20;;;;;;;12.43;9.68;;;;;;;;;;10458985;28;20494;-85
2023/03/22 18:04:22;;;;;;;11.13;9.90;;;;;;;;;;10449575;28;20419;-86
2023/03/22 18:09:25;;;;;;;12.18;9.45;;;;;;;;;;10437596;28;20414;-88
2023/03/22 18:14:29;;;;;;;12.77;10.13;;;;;;;;;;10461076;28;20754;-88
2023/03/22 18:19:31;;;;;;;13.93;10.50;;;;;;;;;;10463328;28;20424;-87
2023/03/22 18:24:33;;;;;;;15.77;12.07;;;;;;;;;;10443970;28;20418;-85
2023/03/22 18:29:36;;;;;;;18.63;14.35;;;;;;;;;;10460900;28;20497;-86
2023/03/22 18:34:39;;;;;;;21.63;16.33;;;;;;;;;;10469205;28;20410;-86
2023/03/22 18:39:41;;;;;;;19.13;15.60;;;;;;;;;;10463419;28;20435;-85
2023/03/22 18:44:45;;;;;;;22.13;14.87;;;;;;;;;;10454929;28;20410;-86
2023/03/22 18:49:47;;;;;;;20.75;13.63;;;;;;;;;;10447940;28;20493;-85
2023/03/22 18:54:48;;;;;;;16.83;13.20;;;;;;;;;;10457798;28;20686;-85
2023/03/22 18:59:52;;;;;;;17.77;12.95;;;;;;;;;;10455403;28;20442;-85
2023/03/22 19:05:12;;;;;;;18.70;13.53;;;;;;;;;;10454942;28;20435;-85
2023/03/22 19:10:16;;;;;;;16.70;13.10;;;;;;;;;;10455109;28;20997;-85
2023/03/22 19:15:20;;;;;;;20.03;16.37;;;;;;;;;;10438246;28;20502;-86
2023/03/22 19:20:21;;;;;;;21.23;15.67;;;;;;;;;;10439148;28;20416;-85
2023/03/22 19:25:23;;;;;;;22.55;16.45;;;;;;;;;;10448131;28;20481;-87
2023/03/22 19:30:27;;;;;;;22.08;17.80;;;;;;;;;;10446371;28;20425;-86
2023/03/22 19:35:29;;;;;;;25.13;18.60;;;;;;;;;;10456166;28;20782;-86
2023/03/22 19:40:31;;;;;;;25.75;19.80;;;;;;;;;;10459294;28;20484;-86
2023/03/22 19:45:35;;;;;;;27.60;20.95;;;;;;;;;;10458886;28;20462;-86
2023/03/22 19:50:37;;;;;;;31.10;22.98;;;;;;;;;;10449482;28;20430;-86
2023/03/22 19:55:39;;;;;;;40.17;28.83;;;;;;;;;;10451831;28;20561;-86
2023/03/22 20:00:49;;;;;;;39.20;27.70;;;;;;;;;;10456698;28;20942;-86
2023/03/22 20:05:51;;;;;;;37.25;27.63;;;;;;;;;;10447930;28;20433;-87
2023/03/22 20:10:53;;;;;;;36.83;26.97;;;;;;;;;;10453682;28;20420;-86
2023/03/22 20:15:57;;;;;;;35.67;26.65;;;;;;;;;;10451682;28;20407;-87
2023/03/22 20:20:59;;;;;;;36.80;25.67;;;;;;;;;;10447955;28;20437;-86
2023/03/22 20:26:03;;;;;;;46.30;30.45;;;;;;;;;;10454264;28;20407;-85
2023/03/22 20:31:19;;;;;;;42.58;29.58;;;;;;;;;;10453183;28;20461;-86
2023/03/22 20:36:21;;;;;;;36.92;27.85;;;;;;;;;;10448059;28;20481;-85
2023/03/22 20:41:23;;;;;;;37.17;27.10;;;;;;;;;;10449957;28;20451;-85
2023/03/22 20:46:26;;;;;;;36.50;25.77;;;;;;;;;;10455697;28;20502;-86
2023/03/22 20:51:30;;;;;;;38.60;26.83;;;;;;;;;;10449801;28;20937;-86
2023/03/22 20:56:34;;;;;;;36.80;27.73;;;;;;;;;;10450031;28;20442;-85
2023/03/22 21:01:40;;;;;;;41.03;27.67;;;;;;;;;;10441877;28;20512;-86
2023/03/22 21:06:42;;;;;;;33.10;25.98;;;;;;;;;;10443008;28;20983;-87
2023/03/22 21:11:44;;;;;;;36.10;24.73;;;;;;;;;;10445532;28;20428;-86
2023/03/22 21:16:48;;;;;;;34.28;23.58;;;;;;;;;;10452567;28;20438;-86
2023/03/22 21:21:50;;;;;;;33.42;24.13;;;;;;;;;;10436165;28;20411;-86
2023/03/22 21:26:52;;;;;;;32.23;24.27;;;;;;;;;;10446213;28;20537;-87
2023/03/22 21:31:56;;;;;;;32.55;23.15;;;;;;;;;;10437005;28;20637;-85
2023/03/22 21:36:58;;;;;;;33.83;23.77;;;;;;;;;;10450200;28;20555;-87
2023/03/22 21:42:01;;;;;;;36.08;25.75;;;;;;;;;;10453829;28;20406;-86
2023/03/22 21:47:05;;;;;;;34.40;24.85;;;;;;;;;;10431961;28;20424;-87
2023/03/22 21:52:06;;;;;;;32.45;24.17;;;;;;;;;;10431042;28;20421;-86
2023/03/22 21:57:08;;;;;;;32.45;24.95;;;;;;;;;;10431739;28;20423;-86
2023/03/22 22:02:17;;;;;;;32.60;25.27;;;;;;;;;;10454490;28;20433;-87
2023/03/22 22:07:18;;;;;;;36.43;26.00;;;;;;;;;;10449753;28;20539;-87
2023/03/22 22:12:20;;;;;;;36.58;25.67;;;;;;;;;;10454454;28;20957;-87
2023/03/22 22:17:24;;;;;;;34.90;25.30;;;;;;;;;;10448998;28;20888;-87
2023/03/22 22:22:26;;;;;;;36.17;25.77;;;;;;;;;;10431800;28;20409;-86
2023/03/22 22:27:28;;;;;;;37.22;26.17;;;;;;;;;;10443691;28;20430;-86
2023/03/22 22:32:34;;;;;;;34.60;25.65;;;;;;;;;;10455463;28;20951;-85
2023/03/22 22:37:36;;;;;;;38.90;27.73;;;;;;;;;;10445677;28;20485;-86
2023/03/22 22:42:38;;;;;;;38.83;27.33;;;;;;;;;;10451718;28;20466;-86
2023/03/22 22:47:42;;;;;;;39.70;27.42;;;;;;;;;;10449003;28;20722;-88
2023/03/22 22:52:43;;;;;;;38.43;26.83;;;;;;;;;;10433958;28;20549;-87
2023/03/22 22:57:45;;;;;;;38.88;28.05;;;;;;;;;;10442769;28;20496;-88
2023/03/22 23:02:48;;;;;;;41.00;28.08;;;;;;;;;;10451273;28;20444;-87
2023/03/22 23:07:50;;;;;;;39.80;27.80;;;;;;;;;;10432259;28;20467;-87
2023/03/22 23:12:52;;;;;;;39.10;28.23;;;;;;;;;;10458821;28;20821;-87
2023/03/22 23:17:56;;;;;;;41.85;27.92;;;;;;;;;;10471678;28;20410;-87
2023/03/22 23:22:58;;;;;;;38.33;28.65;;;;;;;;;;10452789;28;20484;-87
2023/03/22 23:28:01;;;;;;;42.53;29.33;;;;;;;;;;10462468;28;20449;-87
2023/03/22 23:33:04;;;;;;;42.58;28.73;;;;;;;;;;10471856;28;20395;-87
2023/03/22 23:38:06;;;;;;;41.70;30.00;;;;;;;;;;10445506;28;20404;-86
2023/03/22 23:43:08;;;;;;;46.42;30.65;;;;;;;;;;10459490;28;20400;-87
2023/03/22 23:48:12;;;;;;;41.70;30.30;;;;;;;;;;10458914;28;20507;-87
2023/03/22 23:53:13;;;;;;;44.37;30.10;;;;;;;;;;10450391;28;20885;-87
2023/03/22 23:58:15;;;;;;;41.65;29.25;;;;;;;;;;10471863;28;20491;-87
